createdAt,value
2019-03-17T00:02:05.461Z,36.60
2019-03-17T00:04:34.183Z,36.60
2019-03-17T00:07:00.938Z,36.60
2019-03-17T00:09:28.068Z,36.60
2019-03-17T00:11:55.156Z,36.60
2019-03-17T00:14:22.232Z,36.60
2019-03-17T00:16:49.140Z,36.70
2019-03-17T00:19:15.877Z,36.70
2019-03-17T00:21:42.826Z,36.70
2019-03-17T00:24:09.723Z,36.70
2019-03-17T00:26:36.997Z,36.70
2019-03-17T00:29:03.932Z,36.50
2019-03-17T00:31:30.686Z,36.70
2019-03-17T00:33:57.433Z,36.70
2019-03-17T00:36:24.221Z,36.70
2019-03-17T00:38:52.349Z,36.60
2019-03-17T00:41:19.113Z,36.80
2019-03-17T00:43:46.031Z,36.70
2019-03-17T00:46:12.937Z,36.70
2019-03-17T00:48:39.679Z,36.70
2019-03-17T00:51:06.795Z,36.80
2019-03-17T00:53:33.558Z,36.70
2019-03-17T00:56:00.564Z,36.70
2019-03-17T00:58:27.523Z,36.70
2019-03-17T01:00:54.604Z,36.70
2019-03-17T01:03:21.395Z,36.80
2019-03-17T01:05:48.734Z,36.80
2019-03-17T01:08:15.471Z,36.70
2019-03-17T01:10:42.442Z,36.80
2019-03-17T01:13:09.608Z,36.80
2019-03-17T01:15:36.424Z,36.80
2019-03-17T01:18:03.162Z,37.40
2019-03-17T01:20:30.443Z,36.80
2019-03-17T01:22:57.187Z,36.80
2019-03-17T01:25:23.929Z,36.90
2019-03-17T01:27:53.592Z,36.80
2019-03-17T01:30:20.365Z,36.80
2019-03-17T01:32:47.098Z,36.70
2019-03-17T01:35:13.829Z,36.80
2019-03-17T01:37:40.685Z,36.80
2019-03-17T01:40:08.860Z,36.80
2019-03-17T01:42:35.679Z,37.40
2019-03-17T01:45:04.939Z,36.80
2019-03-17T01:47:32.051Z,36.80
2019-03-17T01:49:59.356Z,36.80
2019-03-17T01:52:26.145Z,36.80
2019-03-17T01:54:52.877Z,36.80
2019-03-17T01:57:19.759Z,36.80
2019-03-17T01:59:46.489Z,36.80
2019-03-17T02:02:13.931Z,36.80
2019-03-17T02:04:40.969Z,36.80
2019-03-17T02:07:08.101Z,36.80
2019-03-17T02:09:34.865Z,36.80
2019-03-17T02:12:01.594Z,36.80
2019-03-17T02:14:28.652Z,36.80
2019-03-17T02:16:56.091Z,36.80
2019-03-17T02:19:22.825Z,36.80
2019-03-17T02:21:49.627Z,36.80
2019-03-17T02:24:16.718Z,36.80
2019-03-17T02:26:43.843Z,36.80
2019-03-17T02:29:10.996Z,36.80
2019-03-17T02:31:37.804Z,36.80
2019-03-17T02:34:04.580Z,36.80
2019-03-17T02:36:31.383Z,36.80
2019-03-17T02:38:58.325Z,36.80
2019-03-17T02:41:25.462Z,36.90
2019-03-17T02:43:52.219Z,36.80
2019-03-17T02:46:18.969Z,36.80
2019-03-17T02:48:46.043Z,36.80
2019-03-17T02:51:12.783Z,36.80
2019-03-17T02:53:39.549Z,36.80
2019-03-17T02:56:06.404Z,36.80
2019-03-17T02:58:33.278Z,36.80
2019-03-17T03:01:00.378Z,37.40
2019-03-17T03:03:27.143Z,36.80
2019-03-17T03:05:55.631Z,36.70
2019-03-17T03:08:22.930Z,36.80
2019-03-17T03:10:50.025Z,36.80
2019-03-17T03:13:16.943Z,36.50
2019-03-17T03:15:43.706Z,36.80
2019-03-17T03:18:10.835Z,36.80
2019-03-17T03:20:37.648Z,36.80
2019-03-17T03:23:04.459Z,36.80
2019-03-17T03:25:31.502Z,36.80
2019-03-17T03:27:58.310Z,36.80
2019-03-17T03:30:25.130Z,36.80
2019-03-17T03:32:51.952Z,36.80
2019-03-17T03:35:19.270Z,37.50
2019-03-17T03:37:46.870Z,36.80
2019-03-17T03:40:13.830Z,36.80
2019-03-17T03:42:40.626Z,36.80
2019-03-17T03:45:09.875Z,36.80
2019-03-17T03:47:36.830Z,36.70
2019-03-17T03:50:08.813Z,36.80
2019-03-17T03:52:35.594Z,36.70
2019-03-17T03:55:04.113Z,36.70
2019-03-17T03:57:31.136Z,36.70
2019-03-17T03:59:57.898Z,36.70
2019-03-17T04:02:24.624Z,36.70
2019-03-17T04:04:51.411Z,36.80
2019-03-17T04:07:18.577Z,36.70
2019-03-17T04:09:45.453Z,36.70
2019-03-17T04:12:12.672Z,36.70
2019-03-17T04:14:39.811Z,36.70
2019-03-17T04:17:07.828Z,36.80
2019-03-17T04:19:34.613Z,36.70
2019-03-17T04:22:01.440Z,36.70
2019-03-17T04:24:28.306Z,36.70
2019-03-17T04:26:55.140Z,36.70
2019-03-17T04:29:22.198Z,36.70
2019-03-17T04:31:48.939Z,37.10
2019-03-17T04:34:15.683Z,36.70
2019-03-17T04:36:42.565Z,36.70
2019-03-17T04:39:09.305Z,36.70
2019-03-17T04:41:36.779Z,36.70
2019-03-17T04:44:03.532Z,36.70
2019-03-17T04:46:30.414Z,36.60
2019-03-17T04:48:58.347Z,36.60
2019-03-17T04:51:25.283Z,36.70
2019-03-17T04:53:52.424Z,36.70
2019-03-17T04:56:19.502Z,36.60
2019-03-17T04:58:46.249Z,36.70
2019-03-17T05:01:13.308Z,36.60
2019-03-17T05:03:40.200Z,36.60
2019-03-17T05:06:07.128Z,37.30
2019-03-17T05:08:33.984Z,36.60
2019-03-17T05:11:00.753Z,36.70
2019-03-17T05:13:28.350Z,36.60
2019-03-17T05:15:55.113Z,36.60
2019-03-17T05:18:22.235Z,36.50
2019-03-17T05:20:48.980Z,36.50
2019-03-17T05:23:16.428Z,36.60
2019-03-17T05:25:43.273Z,36.60
2019-03-17T05:28:12.288Z,36.60
2019-03-17T05:30:39.041Z,36.60
2019-03-17T05:33:05.763Z,36.50
2019-03-17T05:35:32.603Z,36.50
2019-03-17T05:37:59.715Z,36.50
2019-03-17T05:40:26.902Z,36.50
2019-03-17T05:42:53.783Z,36.50
2019-03-17T05:45:20.669Z,36.50
2019-03-17T05:47:47.454Z,36.60
2019-03-17T05:50:14.511Z,36.50
2019-03-17T05:52:41.756Z,36.50
2019-03-17T05:55:08.900Z,36.50
2019-03-17T05:57:38.362Z,36.50
2019-03-17T06:00:10.535Z,36.50
2019-03-17T06:02:37.475Z,36.50
2019-03-17T06:05:06.318Z,36.50
2019-03-17T06:07:33.114Z,36.50
2019-03-17T06:10:00.337Z,37.00
2019-03-17T06:12:27.153Z,36.40
2019-03-17T06:14:54.047Z,36.40
2019-03-17T06:17:21.160Z,36.40
2019-03-17T06:19:47.974Z,36.40
2019-03-17T06:22:15.077Z,36.30
2019-03-17T06:24:42.434Z,36.30
2019-03-17T06:27:09.575Z,36.30
2019-03-17T06:29:36.369Z,36.30
2019-03-17T06:32:03.096Z,36.30
2019-03-17T06:34:30.242Z,36.30
2019-03-17T06:36:56.971Z,36.30
2019-03-17T06:39:23.819Z,36.30
2019-03-17T06:41:50.888Z,36.20
2019-03-17T06:44:17.988Z,36.20
2019-03-17T06:46:45.129Z,36.10
2019-03-17T06:49:12.187Z,36.10
2019-03-17T06:51:39.388Z,36.10
2019-03-17T06:54:06.231Z,36.10
2019-03-17T06:56:33.024Z,36.10
2019-03-17T06:58:59.781Z,36.00
2019-03-17T07:01:26.558Z,36.00
2019-03-17T07:03:53.658Z,36.00
2019-03-17T07:06:20.398Z,36.00
2019-03-17T07:08:47.150Z,35.90
2019-03-17T07:11:13.988Z,36.00
2019-03-17T07:13:41.034Z,36.00
2019-03-17T07:16:07.817Z,35.90
2019-03-17T07:18:34.766Z,35.80
2019-03-17T07:21:01.654Z,35.80
2019-03-17T07:23:28.513Z,35.90
2019-03-17T07:25:55.959Z,35.90
2019-03-17T07:28:27.093Z,35.90
2019-03-17T07:30:53.818Z,35.90
2019-03-17T07:33:20.585Z,35.80
2019-03-17T07:35:47.323Z,35.80
2019-03-17T07:38:14.178Z,36.60
2019-03-17T07:40:40.965Z,35.90
2019-03-17T07:43:07.787Z,35.90
2019-03-17T07:45:34.511Z,35.80
2019-03-17T07:48:01.230Z,35.80
2019-03-17T07:50:28.216Z,35.80
2019-03-17T07:52:55.439Z,35.70
2019-03-17T07:55:22.142Z,35.70
2019-03-17T07:57:48.887Z,35.60
2019-03-17T08:00:15.781Z,35.60
2019-03-17T08:02:42.942Z,35.60
2019-03-17T08:05:10.012Z,35.50
2019-03-17T08:07:36.857Z,35.40
2019-03-17T08:10:15.176Z,35.30
2019-03-17T08:12:41.941Z,35.10
2019-03-17T08:15:10.928Z,34.40
2019-03-17T08:17:37.779Z,33.00
2019-03-17T08:20:09.528Z,32.20
2019-03-17T08:22:36.283Z,31.70
2019-03-17T08:25:06.171Z,31.20
2019-03-17T08:27:32.949Z,30.90
2019-03-17T08:30:01.155Z,30.70
2019-03-17T08:32:27.922Z,30.60
2019-03-17T08:34:54.645Z,30.50
2019-03-17T08:37:21.474Z,30.30
2019-03-17T08:39:48.223Z,30.10
2019-03-17T08:42:14.951Z,30.00
2019-03-17T08:44:41.771Z,30.00
2019-03-17T08:47:08.561Z,29.90
2019-03-17T08:49:35.334Z,29.90
2019-03-17T08:52:02.061Z,30.00
2019-03-17T08:54:29.608Z,30.00
2019-03-17T08:56:56.750Z,30.10
2019-03-17T08:59:23.731Z,30.40
2019-03-17T09:01:51.277Z,30.90
2019-03-17T09:04:17.998Z,31.40
2019-03-17T09:06:44.737Z,31.70
2019-03-17T09:09:11.990Z,32.00
2019-03-17T09:11:39.327Z,32.10
2019-03-17T09:14:06.109Z,32.00
2019-03-17T09:16:32.990Z,32.10
2019-03-17T09:18:59.821Z,32.10
2019-03-17T09:21:27.931Z,32.20
2019-03-17T09:23:54.948Z,32.10
2019-03-17T09:26:22.286Z,32.10
2019-03-17T09:28:49.618Z,32.10
2019-03-17T09:31:16.527Z,32.10
2019-03-17T09:33:43.525Z,32.10
2019-03-17T09:36:09.879Z,32.00
2019-03-17T09:38:46.784Z,31.90
2019-03-17T09:41:05.400Z,32.00
2019-03-17T09:43:32.142Z,31.90
2019-03-17T09:46:00.711Z,31.80
2019-03-17T09:48:29.158Z,31.90
2019-03-17T09:50:56.023Z,31.90
2019-03-17T09:53:22.918Z,31.90
2019-03-17T09:55:49.813Z,31.90
2019-03-17T09:58:16.635Z,31.90
2019-03-17T10:00:43.516Z,31.80
2019-03-17T10:03:10.255Z,31.90
2019-03-17T10:05:36.992Z,31.90
2019-03-17T10:08:04.052Z,31.80
2019-03-17T10:10:30.789Z,31.80
2019-03-17T10:12:57.562Z,31.90
2019-03-17T10:15:24.302Z,31.90
2019-03-17T10:17:51.170Z,32.10
2019-03-17T10:20:19.420Z,32.20
2019-03-17T10:22:46.507Z,32.30
2019-03-17T10:25:13.220Z,32.50
2019-03-17T10:27:39.953Z,32.40
2019-03-17T10:30:11.457Z,32.30
2019-03-17T10:32:38.182Z,32.40
2019-03-17T10:35:05.097Z,32.40
2019-03-17T10:37:32.226Z,32.40
2019-03-17T10:39:58.975Z,32.40
2019-03-17T10:42:26.712Z,32.40
2019-03-17T10:44:53.672Z,32.50
2019-03-17T10:47:20.710Z,32.50
2019-03-17T10:49:47.861Z,32.70
2019-03-17T10:52:14.587Z,32.70
2019-03-17T10:54:41.520Z,32.60
2019-03-17T10:57:08.297Z,32.70
2019-03-17T10:59:35.117Z,32.70
2019-03-17T11:02:02.054Z,32.70
2019-03-17T11:04:28.986Z,32.80
2019-03-17T11:06:56.903Z,32.80
2019-03-17T11:09:25.441Z,32.80
2019-03-17T11:11:52.591Z,32.90
2019-03-17T11:14:19.883Z,32.80
2019-03-17T11:16:46.626Z,32.80
2019-03-17T11:19:13.787Z,32.90
2019-03-17T11:21:40.543Z,32.90
2019-03-17T11:24:08.233Z,33.00
2019-03-17T11:26:35.325Z,33.00
2019-03-17T11:29:02.235Z,32.90
2019-03-17T11:31:29.079Z,33.10
2019-03-17T11:33:55.878Z,33.20
2019-03-17T11:36:22.695Z,33.30
2019-03-17T11:38:49.778Z,33.30
2019-03-17T11:41:16.520Z,33.30
2019-03-17T11:43:43.454Z,33.40
2019-03-17T11:46:10.267Z,33.50
2019-03-17T11:48:37.463Z,33.50
2019-03-17T11:51:04.841Z,33.70
2019-03-17T11:53:31.625Z,33.60
2019-03-17T11:55:58.523Z,33.80
2019-03-17T11:58:25.671Z,33.80
2019-03-17T12:00:52.701Z,33.90
2019-03-17T12:03:19.466Z,33.90
2019-03-17T12:05:46.289Z,34.00
2019-03-17T12:08:13.329Z,34.10
2019-03-17T12:10:40.307Z,34.10
2019-03-17T12:13:07.606Z,34.10
2019-03-17T12:15:34.683Z,34.00
2019-03-17T12:18:02.147Z,34.00
2019-03-17T12:20:29.113Z,34.10
2019-03-17T12:22:56.301Z,34.10
2019-03-17T12:25:23.038Z,34.00
2019-03-17T12:27:49.784Z,34.00
2019-03-17T12:30:22.551Z,34.00
2019-03-17T12:32:50.734Z,34.00
2019-03-17T12:35:17.485Z,34.70
2019-03-17T12:37:44.662Z,34.00
2019-03-17T12:40:11.578Z,34.00
2019-03-17T12:42:38.669Z,34.10
2019-03-17T12:45:07.478Z,34.10
2019-03-17T12:47:37.209Z,34.20
2019-03-17T12:50:07.137Z,34.30
2019-03-17T12:52:34.412Z,34.40
2019-03-17T12:55:01.155Z,34.40
2019-03-17T12:57:27.914Z,34.50
2019-03-17T12:59:54.653Z,34.50
2019-03-17T13:02:21.406Z,35.10
2019-03-17T13:04:48.841Z,34.60
2019-03-17T13:07:15.909Z,34.60
2019-03-17T13:09:43.335Z,34.70
2019-03-17T13:12:10.190Z,34.70
2019-03-17T13:14:36.953Z,34.70
2019-03-17T13:17:03.814Z,34.80
2019-03-17T13:19:30.564Z,34.80
2019-03-17T13:21:57.353Z,34.90
2019-03-17T13:24:24.074Z,35.00
2019-03-17T13:26:50.940Z,34.90
2019-03-17T13:29:17.693Z,35.10
2019-03-17T13:31:44.621Z,35.10
2019-03-17T13:34:11.696Z,35.10
2019-03-17T13:36:38.562Z,35.20
2019-03-17T13:39:05.886Z,35.30
2019-03-17T13:41:32.645Z,35.30
2019-03-17T13:43:59.471Z,35.40
2019-03-17T13:46:26.259Z,35.40
2019-03-17T13:48:53.337Z,35.40
2019-03-17T13:51:20.087Z,35.40
2019-03-17T13:53:46.848Z,35.50
2019-03-17T13:56:14.086Z,35.50
2019-03-17T13:58:40.830Z,35.50
2019-03-17T14:01:07.694Z,35.50
2019-03-17T14:03:34.421Z,35.50
2019-03-17T14:06:01.544Z,35.40
2019-03-17T14:08:28.312Z,35.50
2019-03-17T14:11:14.926Z,35.40
2019-03-17T14:13:41.980Z,35.50
2019-03-17T14:16:09.141Z,35.60
2019-03-17T14:18:36.455Z,35.60
2019-03-17T14:21:03.637Z,35.60
2019-03-17T14:23:30.764Z,35.70
2019-03-17T14:25:57.939Z,35.70
2019-03-17T14:28:24.711Z,35.70
2019-03-17T14:30:52.112Z,35.70
2019-03-17T14:33:19.279Z,35.70
2019-03-17T14:35:46.236Z,35.80
2019-03-17T14:38:14.273Z,35.80
2019-03-17T14:40:52.776Z,35.80
2019-03-17T14:43:10.062Z,35.80
2019-03-17T14:45:37.299Z,35.80
2019-03-17T14:48:04.192Z,35.90
2019-03-17T14:50:30.998Z,35.90
2019-03-17T14:53:00.611Z,35.90
2019-03-17T14:55:27.468Z,35.90
2019-03-17T14:57:54.268Z,35.90
2019-03-17T15:00:22.606Z,35.90
2019-03-17T15:02:49.502Z,35.90
2019-03-17T15:05:16.705Z,35.90
2019-03-17T15:07:43.500Z,36.00
2019-03-17T15:10:21.328Z,35.90
2019-03-17T15:12:48.221Z,35.90
2019-03-17T15:15:17.746Z,36.10
2019-03-17T15:17:44.943Z,35.90
2019-03-17T15:20:14.693Z,36.00
2019-03-17T15:22:41.968Z,36.00
2019-03-17T15:25:10.340Z,35.90
2019-03-17T15:27:37.588Z,36.00
2019-03-17T15:30:26.394Z,36.00
2019-03-17T15:32:53.186Z,36.00
2019-03-17T15:35:19.936Z,36.00
2019-03-17T15:37:46.740Z,36.00
2019-03-17T15:40:18.012Z,36.00
2019-03-17T15:42:44.952Z,35.90
2019-03-17T15:45:24.643Z,36.00
2019-03-17T15:47:51.609Z,36.00
2019-03-17T15:50:23.675Z,36.10
2019-03-17T15:52:50.712Z,36.00
2019-03-17T15:55:17.582Z,36.10
2019-03-17T15:57:44.511Z,36.00
2019-03-17T16:00:25.423Z,36.00
2019-03-17T16:02:48.199Z,36.70
2019-03-17T16:05:14.983Z,36.10
2019-03-17T16:07:42.765Z,36.10
2019-03-17T16:10:29.583Z,36.10
2019-03-17T16:12:56.341Z,36.10
2019-03-17T16:15:23.131Z,36.20
2019-03-17T16:17:50.252Z,36.10
2019-03-17T16:20:24.306Z,36.10
2019-03-17T16:22:51.266Z,36.10
2019-03-17T16:25:33.035Z,36.20
2019-03-17T16:28:00.275Z,36.20
2019-03-17T16:30:29.059Z,36.20
2019-03-17T16:32:55.976Z,36.20
2019-03-17T16:35:23.053Z,36.20
2019-03-17T16:37:51.733Z,36.20
2019-03-17T16:40:24.952Z,36.20
2019-03-17T16:42:53.736Z,36.20
2019-03-17T16:45:20.730Z,36.20
2019-03-17T16:47:47.558Z,36.20
2019-03-17T16:50:22.108Z,36.20
2019-03-17T16:52:49.350Z,36.50
2019-03-17T16:55:16.101Z,36.20
2019-03-17T16:57:42.958Z,36.30
2019-03-17T17:00:19.234Z,36.30
2019-03-17T17:02:48.188Z,36.30
2019-03-17T17:05:16.823Z,36.20
2019-03-17T17:07:44.018Z,36.90
2019-03-17T17:10:18.007Z,36.30
2019-03-17T17:12:45.090Z,36.30
2019-03-17T17:15:19.098Z,36.30
2019-03-17T17:17:46.688Z,36.30
2019-03-17T17:20:19.764Z,36.30
2019-03-17T17:22:46.573Z,36.30
2019-03-17T17:25:13.813Z,36.30
2019-03-17T17:27:40.774Z,36.30
2019-03-17T17:30:19.213Z,36.40
2019-03-17T17:32:45.938Z,36.30
2019-03-17T17:35:13.134Z,36.30
2019-03-17T17:37:42.284Z,36.30
2019-03-17T17:40:16.978Z,36.30
2019-03-17T17:42:43.723Z,35.90
2019-03-17T17:45:13.833Z,37.00
2019-03-17T17:47:43.071Z,36.30
2019-03-17T17:50:17.240Z,36.30
2019-03-17T17:52:44.048Z,36.30
2019-03-17T17:55:10.953Z,36.30
2019-03-17T17:57:38.006Z,36.30
2019-03-17T18:00:15.513Z,36.30
2019-03-17T18:02:42.250Z,36.30
2019-03-17T18:05:09.762Z,36.30
2019-03-17T18:07:36.707Z,36.30
2019-03-17T18:10:12.799Z,36.40
2019-03-17T18:12:40.372Z,36.30
2019-03-17T18:15:13.946Z,36.30
2019-03-17T18:17:41.521Z,36.30
2019-03-17T18:20:11.154Z,36.30
2019-03-17T18:22:38.216Z,36.20
2019-03-17T18:25:12.545Z,36.20
2019-03-17T18:27:39.371Z,36.30
2019-03-17T18:30:15.284Z,36.20
2019-03-17T18:32:42.211Z,36.30
2019-03-17T18:35:09.759Z,36.20
2019-03-17T18:37:36.663Z,36.20
2019-03-17T18:40:13.551Z,36.20
2019-03-17T18:42:40.462Z,36.20
2019-03-17T18:45:23.375Z,36.20
2019-03-17T18:47:50.215Z,36.20
2019-03-17T18:50:20.785Z,36.20
2019-03-17T18:52:47.727Z,36.20
2019-03-17T18:55:14.879Z,36.20
2019-03-17T18:57:41.891Z,36.20
2019-03-17T19:00:17.968Z,36.20
2019-03-17T19:02:46.592Z,36.20
2019-03-17T19:05:15.324Z,36.20
2019-03-17T19:07:42.296Z,36.20
2019-03-17T19:10:11.618Z,36.20
2019-03-17T19:12:45.429Z,36.10
2019-03-17T19:15:11.313Z,36.20
2019-03-17T19:17:38.346Z,36.10
2019-03-17T19:20:09.600Z,36.10
2019-03-17T19:22:36.644Z,36.20
2019-03-17T19:25:08.295Z,36.10
2019-03-17T19:27:36.498Z,36.10
2019-03-17T19:30:09.039Z,36.10
2019-03-17T19:32:35.837Z,36.10
2019-03-17T19:35:02.984Z,36.10
2019-03-17T19:37:29.740Z,36.10
2019-03-17T19:39:56.823Z,36.10
2019-03-17T19:42:23.616Z,36.20
2019-03-17T19:44:50.476Z,36.00
2019-03-17T19:47:17.230Z,36.10
2019-03-17T19:49:44.083Z,36.10
2019-03-17T19:52:13.595Z,36.10
2019-03-17T19:54:41.934Z,36.10
2019-03-17T19:57:08.814Z,36.00
2019-03-17T19:59:35.969Z,36.50
2019-03-17T20:02:03.066Z,36.10
2019-03-17T20:04:35.051Z,36.00
2019-03-17T20:06:59.197Z,36.10
2019-03-17T20:09:26.346Z,36.10
2019-03-17T20:11:53.339Z,36.00
2019-03-17T20:14:20.543Z,36.00
2019-03-17T20:16:47.335Z,36.00
2019-03-17T20:19:14.414Z,36.00
2019-03-17T20:21:41.508Z,36.00
2019-03-17T20:24:08.317Z,36.00
2019-03-17T20:26:35.120Z,36.00
2019-03-17T20:29:03.511Z,36.00
2019-03-17T20:31:30.297Z,36.00
2019-03-17T20:33:57.084Z,36.00
2019-03-17T20:36:26.192Z,35.90
2019-03-17T20:38:52.988Z,35.90
2019-03-17T20:41:20.108Z,36.00
2019-03-17T20:43:46.961Z,35.90
2019-03-17T20:46:14.026Z,36.60
2019-03-17T20:48:42.836Z,35.90
2019-03-17T20:51:10.107Z,36.50
2019-03-17T20:53:37.342Z,35.90
2019-03-17T20:56:04.223Z,35.90
2019-03-17T20:58:30.994Z,35.80
2019-03-17T21:00:57.815Z,35.90
2019-03-17T21:03:25.036Z,35.80
2019-03-17T21:05:52.154Z,35.90
2019-03-17T21:08:19.047Z,35.80
2019-03-17T21:10:45.828Z,35.90
2019-03-17T21:13:12.655Z,35.80
2019-03-17T21:15:39.429Z,35.80
2019-03-17T21:18:06.196Z,35.80
2019-03-17T21:20:36.093Z,35.80
2019-03-17T21:23:03.062Z,35.80
2019-03-17T21:25:30.184Z,35.50
2019-03-17T21:27:56.984Z,36.40
2019-03-17T21:30:27.582Z,35.80
2019-03-17T21:32:54.982Z,35.80
2019-03-17T21:35:21.811Z,35.80
2019-03-17T21:37:49.017Z,36.30
2019-03-17T21:40:16.688Z,35.70
2019-03-17T21:42:43.649Z,35.70
2019-03-17T21:45:11.851Z,35.80
2019-03-17T21:47:38.601Z,35.70
2019-03-17T21:50:10.990Z,36.40
2019-03-17T21:52:38.095Z,35.60
2019-03-17T21:55:08.181Z,35.80
2019-03-17T21:57:34.907Z,35.60
2019-03-17T22:00:02.343Z,35.60
2019-03-17T22:02:29.073Z,35.60
2019-03-17T22:04:55.829Z,35.70
2019-03-17T22:07:22.645Z,35.70
2019-03-17T22:09:49.443Z,35.70
2019-03-17T22:12:16.187Z,35.70
2019-03-17T22:14:43.115Z,35.60
2019-03-17T22:17:09.857Z,35.60
2019-03-17T22:19:36.726Z,35.60
2019-03-17T22:22:03.472Z,35.60
2019-03-17T22:24:32.333Z,35.60
2019-03-17T22:26:59.204Z,35.60
2019-03-17T22:29:26.082Z,35.60
2019-03-17T22:31:53.219Z,35.60
2019-03-17T22:34:20.329Z,35.60
2019-03-17T22:36:47.040Z,35.50
2019-03-17T22:39:13.917Z,35.40
2019-03-17T22:41:40.813Z,35.50
2019-03-17T22:44:07.584Z,35.40
2019-03-17T22:46:34.437Z,35.50
2019-03-17T22:49:01.880Z,35.50
2019-03-17T22:51:28.688Z,35.40
2019-03-17T22:53:55.440Z,35.40
2019-03-17T22:56:22.168Z,35.40
2019-03-17T22:58:49.475Z,35.40
2019-03-17T23:01:16.205Z,35.40
2019-03-17T23:03:43.676Z,35.40
2019-03-17T23:06:10.436Z,35.40
2019-03-17T23:08:37.552Z,35.40
2019-03-17T23:11:04.336Z,35.40
2019-03-17T23:13:31.137Z,35.40
2019-03-17T23:15:57.878Z,35.40
2019-03-17T23:18:25.011Z,35.40
2019-03-17T23:20:52.037Z,35.50
2019-03-17T23:23:18.779Z,35.40
2019-03-17T23:25:45.530Z,35.40
2019-03-17T23:28:12.270Z,35.40
2019-03-17T23:30:39.183Z,35.40
2019-03-17T23:33:06.368Z,35.40
2019-03-17T23:35:33.501Z,35.40
2019-03-17T23:38:00.604Z,35.40
2019-03-17T23:40:27.918Z,35.40
2019-03-17T23:42:54.677Z,35.50
2019-03-17T23:45:21.439Z,35.50
2019-03-17T23:47:48.183Z,35.40
2019-03-17T23:50:15.143Z,35.40
2019-03-17T23:52:41.907Z,35.40
2019-03-17T23:55:10.965Z,35.40
2019-03-17T23:57:38.306Z,36.00
